Date,TemperatureHighF,TemperatureAvgF,TemperatureLowF,DewpointHighF,DewpointAvgF,DewpointLowF,HumidityHigh,HumidityAvg,HumidityLow,PressureMaxIn,PressureMinIn,WindSpeedMaxMPH,WindSpeedAvgMPH,GustSpeedMaxMPH,PrecipitationSumIn
2014-1-30,50,46,39,46,42,36,95,85,69,30.07,30.00,14,6,14,0.01
2014-1-31,48,43,39,44,40,37,93,91,87,30.17,30.08,10,6,10,0.01
2014-2-1,51,45,41,42,40,39,92,85,68,30.18,29.94,12,6,12,0.01
2014-2-2,54,47,40,44,40,37,89,79,63,30.04,29.90,22,10,22,0.01
2014-2-3,48,43,37,41,38,35,92,82,66,30.15,30.04,16,8,16,0.01
2014-2-4,47,42,38,41,37,36,93,85,68,30.22,30.15,14,5,14,0.00
2014-2-5,48,41,35,37,32,28,92,71,63,30.22,29.98,18,7,18,0.00
2014-2-6,49,41,33,48,36,28,94,82,70,29.97,29.66,25,8,25,0.01
2014-2-7,53,45,42,51,43,38,96,91,79,29.84,29.46,29,5,30,0.01
2014-2-8,58,50,46,56,48,44,96,92,87,30.00,29.62,40,8,45,0.01
2014-2-9,54,49,43,51,47,42,95,93,86,30.07,29.96,8,1,10,0.00
2014-2-10,54,49,42,52,47,40,96,93,90,30.25,30.07,19,4,19,0.01
2014-2-11,58,52,48,50,47,45,93,84,69,30.24,29.86,35,4,35,0.01
2014-2-12,55,54,52,53,51,49,95,93,89,30.05,29.87,40,11,43,0.00
2014-2-13,57,53,48,54,50,47,95,90,76,30.17,29.82,23,3,23,0.01
2014-2-14,56,53,49,54,51,47,94,92,89,30.02,29.83,27,6,28,0.00
2014-2-15,56,51,44,53,49,40,95,91,81,29.92,29.49,29,7,46,0.01
2014-2-16,55,50,43,46,42,39,89,75,59,30.13,29.92,28,7,29,0.00
2014-2-17,53,51,50,50,48,43,92,88,72,30.09,29.92,32,9,32,0.01
2014-2-18,59,51,44,51,47,37,92,86,69,30.11,29.90,35,7,35,0.00
2014-2-19,52,46,38,44,40,36,93,82,68,30.32,30.11,17,3,17,0.01
2014-2-20,50,47,44,48,45,41,94,93,88,30.32,30.28,12,2,12,0.00
2014-2-21,52,47,42,48,44,40,96,91,81,30.30,30.19,21,4,21,0.01
2014-2-22,55,45,36,47,41,34,95,88,72,30.20,30.01,21,3,21,0.00
2014-2-23,54,47,38,48,43,35,93,87,74,30.02,29.98,11,1,11,0.01
2014-2-24,61,53,49,51,45,38,91,75,48,30.01,29.92,10,2,10,0.01
2014-2-25,61,53,46,54,47,44,94,81,59,29.93,29.83,9,1,9,0.00
2014-2-26,60,52,47,53,48,45,93,85,71,29.83,29.57,15,3,16,0.01
2014-2-27,58,52,49,53,49,46,94,89,77,29.70,29.58,16,3,17,0.00
2014-2-28,60,53,47,51,48,45,94,84,64,29.61,29.35,19,3,19,0.01
2014-3-1,58,53,51,52,50,48,92,89,79,29.75,29.47,16,2,16,0.00
2014-3-2,56,53,51,52,50,49,94,90,85,29.90,29.70,33,7,33,0.01
2014-3-3,59,54,52,55,52,50,95,92,85,30.01,29.78,21,4,21,0.00
2014-3-4,62,56,52,54,52,50,95,88,73,30.04,29.85,16,2,20,0.00
2014-3-5,62,58,56,58,54,50,92,88,79,29.86,29.56,41,10,42,0.01
2014-3-6,57,53,46,51,49,44,92,87,77,30.21,29.70,32,9,40,0.00
2014-3-7,59,51,45,50,47,43,94,86,70,30.26,30.09,11,3,12,0.00
2014-3-8,63,55,46,57,49,44,93,80,50,30.12,29.91,29,5,32,0.00
2014-3-9,58,54,51,55,52,50,95,93,90,30.07,29.97,26,7,28,0.00
2014-3-10,54,50,44,50,45,40,96,83,71,30.49,30.07,22,6,22,0.01
2014-3-11,61,49,38,48,41,35,93,76,40,30.50,30.27,24,4,24,0.00
2014-3-12,63,54,44,49,40,34,88,62,39,30.27,30.15,17,5,22,0.00
2014-3-13,56,49,41,49,45,38,92,87,73,30.16,30.10,15,3,16,0.00
2014-3-14,57,52,48,53,49,46,94,91,83,30.32,30.10,13,2,13,0.00
2014-3-15,60,53,47,53,50,46,96,89,78,30.37,30.28,11,2,11,0.00
2014-3-16,57,54,53,50,49,46,88,84,66,30.37,30.18,23,4,23,0.00
2014-3-17,50,48,44,39,36,32,73,64,52,30.43,30.36,28,9,28,0.00
2014-3-18,53,46,37,45,40,33,89,79,65,30.39,30.14,29,6,33,0.00
2014-3-19,55,47,39,46,43,38,94,85,66,30.29,30.13,16,4,16,0.00
2014-3-20,52,46,40,41,38,33,89,76,50,30.35,30.26,35,6,35,0.00
2014-3-21,50,45,38,42,38,34,88,76,58,30.27,30.19,31,7,31,0.00
2014-3-22,54,46,36,43,39,33,91,77,61,30.25,30.19,27,6,28,0.00
2014-3-23,55,47,37,46,40,35,90,78,57,30.25,30.12,24,4,24,0.00
2014-3-24,68,53,41,48,40,30,89,64,34,30.12,29.89,22,3,31,0.00
2014-3-25,59,53,48,51,45,28,90,77,33,29.89,29.67,38,7,38,0.00
2014-3-26,55,50,46,50,46,43,92,87,75,29.69,29.59,21,6,26,0.00
2014-3-27,57,51,48,50,47,45,92,86,68,29.93,29.69,23,7,26,0.00
2014-3-28,56,53,50,53,50,48,93,91,89,29.90,29.77,29,6,30,0.00
2014-3-29,57,52,49,51,48,44,91,85,76,30.00,29.84,23,7,27,0.00
2014-3-30,55,49,44,46,42,38,93,77,56,30.05,29.90,18,4,19,0.00
2014-3-31,55,47,43,46,41,37,92,79,57,29.90,29.69,18,5,18,0.00
2014-4-1,57,48,41,43,41,37,92,78,53,29.96,29.73,17,6,17,0.00
2014-4-2,55,47,38,47,42,36,93,82,64,30.07,29.97,13,3,13,0.00
2014-4-3,56,49,44,48,44,40,92,81,58,30.05,29.98,21,5,22,0.00
2014-4-4,55,50,45,48,45,41,93,83,60,30.03,29.99,15,3,15,0.00
2014-4-5,58,52,48,51,49,46,94,90,77,30.23,30.03,26,5,26,0.00
2014-4-6,57,53,51,54,51,49,95,92,86,30.35,30.23,16,4,16,0.00
2014-4-7,56,52,49,54,50,47,95,93,89,30.29,30.19,11,2,11,0.00
2014-4-8,55,51,48,53,49,46,96,92,86,30.22,30.14,16,3,16,0.00
2014-4-9,57,52,48,50,48,44,94,85,74,30.20,30.14,33,8,33,0.00
2014-4-10,55,50,42,47,44,39,93,81,66,30.19,30.07,32,9,34,0.00
2014-4-11,54,50,45,48,46,42,90,84,74,30.11,30.00,36,11,36,0.00
2014-4-12,54,50,46,47,45,42,89,83,71,30.10,30.02,31,10,33,0.00
2014-4-13,66,53,40,50,44,38,94,74,43,30.13,30.01,24,4,26,0.00
2014-4-14,56,51,46,50,47,41,91,84,73,30.27,30.04,23,6,23,0.00
2014-4-15,55,51,46,46,44,41,88,80,61,30.28,30.17,25,7,25,0.00
2014-4-16,58,52,45,49,46,42,90,82,65,30.19,30.00,13,2,13,0.00
2014-4-17,59,52,49,53,50,46,94,91,79,30.07,29.92,18,3,20,0.00
2014-4-18,57,50,42,49,45,40,94,84,70,30.10,29.89,24,4,24,0.00
2014-4-19,59,51,46,51,46,40,93,84,70,30.26,29.87,20,5,22,0.00
2014-4-20,59,51,43,49,45,41,93,81,57,30.28,30.14,11,3,11,0.00
2014-4-21,61,50,46,49,46,42,93,84,56,30.15,29.95,15,3,15,0.00
2014-4-22,56,49,44,47,44,40,92,82,60,30.06,29.98,25,5,25,0.00
2014-4-23,57,51,46,52,48,44,92,89,77,30.05,29.85,28,7,29,0.00
2014-4-24,57,53,47,52,48,43,93,83,61,29.99,29.82,31,6,31,0.00
2014-4-25,55,49,43,47,43,39,93,81,63,29.94,29.88,14,5,18,0.00
2014-4-26,58,48,40,45,42,38,92,78,52,29.93,29.77,24,6,27,0.00
2014-4-27,57,50,45,49,46,42,91,84,72,30.20,29.84,20,3,20,0.00
2014-4-28,61,52,43,49,44,41,92,77,52,30.33,30.20,14,4,14,0.00
2014-4-29,75,58,45,54,48,41,86,72,45,30.36,30.18,21,4,21,0.00
2014-4-30,92,73,61,54,46,30,77,43,12,30.19,29.97,16,5,18,0.00
2014-5-1,80,67,55,53,47,40,88,52,27,30.13,29.97,26,4,26,0.00
2014-5-2,59,56,53,54,52,50,91,87,81,30.14,30.04,13,3,13,0.00
2014-5-3,62,56,50,51,50,47,91,80,60,30.04,29.85,29,7,29,0.00
2014-5-4,60,54,51,52,50,48,92,85,69,29.99,29.87,27,7,27,0.00
2014-5-5,58,53,48,50,47,44,93,80,63,30.10,30.00,15,3,15,0.00
2014-5-6,58,54,52,50,47,44,92,78,67,30.12,30.06,20,7,21,0.00
2014-5-7,57,51,45,48,45,42,90,79,61,30.08,29.94,17,3,17,0.00
2014-5-8,58,53,49,54,51,46,94,91,86,29.98,29.80,22,5,23,0.00
2014-5-9,59,53,49,51,48,45,92,85,66,30.14,29.98,24,5,24,0.00
2014-5-10,57,53,47,50,47,44,91,81,66,30.31,30.14,18,4,18,0.00
2014-5-11,59,53,44,51,47,42,93,82,66,30.32,30.21,30,7,30,0.00
2014-5-12,66,57,46,53,48,40,93,75,45,30.25,30.16,23,5,23,0.00
2014-5-13,75,62,49,53,48,43,89,62,32,30.22,30.12,24,6,24,0.00
2014-5-14,81,68,55,58,52,47,85,58,40,30.16,30.06,10,2,10,0.00
2014-5-15,66,59,54,56,52,50,85,78,64,30.15,30.03,15,4,16,0.00
2014-5-16,63,58,54,54,52,50,88,79,67,30.17,30.12,16,4,16,0.00
2014-5-17,57,56,55,53,52,51,90,89,88,30.13,30.05,7,1,7,0.00
2014-11-19,60,55,53,54,51,40,94,86,54,29.99,29.80,18,4,18,0.31
2014-11-20,60,54,49,53,50,47,93,90,78,29.99,29.92,11,3,12,0.05
2014-11-21,60,55,49,58,52,47,95,89,83,29.95,29.63,37,7,38,0.66
2014-11-22,58,53,46,56,49,44,95,86,74,30.30,29.77,31,4,31,0.20
2014-11-23,59,52,47,52,48,44,93,85,73,30.37,30.30,14,3,14,0.00
2014-11-24,60,53,45,54,47,42,93,81,57,30.38,30.30,18,4,19,0.01
2014-11-25,63,57,50,58,54,49,95,90,82,30.42,30.31,16,3,16,0.00
2014-11-26,65,57,48,56,50,44,96,79,51,30.31,29.99,26,2,26,0.02
2014-11-27,62,56,52,52,50,46,93,81,55,30.02,29.81,26,4,26,0.47
2014-11-28,60,55,49,56,53,46,94,91,85,29.81,29.61,30,7,30,1.45
2014-11-29,51,46,36,46,38,30,91,75,50,29.96,29.71,27,5,27,0.04
2014-11-30,54,43,34,41,36,31,91,77,57,29.97,29.83,17,5,17,0.01
2014-12-1,53,50,45,51,47,41,95,92,78,30.05,29.97,18,6,18,2.55
2014-12-2,54,50,47,51,46,42,93,85,75,30.01,29.66,19,6,19,0.01
2014-12-3,57,50,48,55,46,43,96,85,77,29.71,29.61,17,6,17,0.15
2014-12-4,59,56,53,56,54,52,95,93,90,29.87,29.71,18,4,20,0.73
2014-12-5,63,57,54,56,53,51,95,88,71,29.88,29.70,24,4,25,0.54
2014-12-6,62,55,51,51,49,45,90,81,64,30.18,29.87,20,5,20,0.01
2014-12-7,60,54,50,53,47,44,88,76,61,30.13,29.91,18,8,19,0.02
2014-12-8,65,59,52,56,50,47,86,73,58,30.01,29.92,19,4,21,0.01
2014-12-9,65,61,59,58,55,51,92,81,64,29.97,29.74,27,5,27,0.37
2014-12-10,66,58,50,57,53,47,93,83,65,29.74,29.36,31,7,32,0.69
2014-12-11,58,53,48,53,49,46,93,87,72,29.65,29.02,43,8,43,0.95
2014-12-12,55,49,43,50,46,42,94,91,82,30.09,29.64,9,2,13,0.03
2014-12-13,56,46,41,47,43,39,95,87,67,30.21,30.09,12,2,12,0.05
2014-12-14,55,48,42,43,40,37,86,74,53,30.10,29.81,19,7,20,0.06
2014-12-15,54,51,49,48,46,43,93,83,68,29.83,29.74,14,4,14,0.14
2014-12-16,55,51,47,47,45,43,89,81,67,29.76,29.64,13,4,13,0.01
2014-12-17,54,49,47,48,46,43,93,87,76,29.96,29.71,18,4,18,0.21
2014-12-18,60,53,47,52,48,46,93,85,72,29.95,29.79,24,5,24,0.61
2014-12-19,55,50,46,50,47,43,94,89,77,30.02,29.90,17,4,18,1.02
2014-12-20,58,56,52,57,54,50,95,94,91,29.97,29.75,33,10,36,1.88
2014-12-21,58,57,55,57,56,54,96,96,95,30.24,29.95,24,6,24,0.60
2014-12-22,57,56,54,56,55,53,97,96,96,30.37,30.23,18,2,21,0.20
2014-12-23,58,56,54,56,54,52,97,95,91,30.32,30.08,9,1,9,0.01
2014-12-24,55,50,45,54,46,41,95,87,71,30.20,29.85,41,9,41,1.75
2014-12-25,52,47,43,47,43,40,94,87,67,30.32,30.19,23,3,23,0.27
2014-12-26,56,47,42,47,43,39,94,88,70,30.37,30.29,13,2,13,0.01
2014-12-27,52,46,39,50,42,36,95,89,72,30.34,30.28,17,2,17,0.25
2014-12-28,52,48,44,49,43,38,93,82,60,30.37,30.28,18,4,19,0.08
2014-12-29,49,44,35,43,38,29,93,78,66,30.46,30.20,26,5,26,0.23
2014-12-30,44,36,31,29,25,22,80,65,48,30.59,30.46,10,3,16,0.00
2014-12-31,45,35,30,30,26,22,84,68,52,30.56,30.25,17,3,17,0.00
2015-1-1,52,39,30,38,31,26,86,73,56,30.24,30.09,10,2,10,0.00
2015-1-2,50,42,35,42,36,30,90,79,68,30.25,30.15,14,2,15,0.00